Time;durP1;ratioP1;P1;durP2;ratioP2;P2;SDS_P1;SDS_P2;PMS_P1;PMS_P2;Temp;Humidity;BMP_temperature;BMP_pressure;BME280_temperature;BME280_humidity;BME280_pressure;Samples;Min_cycle;Max_cycle;Signal;HPM_P1;HPM_P2
2021/04/05 07:14:26;;;;;;;4.05;2.28;;;;;;;;;;5084837;27;21078;-50
2021/04/05 07:17:00;;;;;;;4.95;2.53;;;;;;;;;;5083721;28;20208;-50
2021/04/05 07:19:34;;;;;;;4.13;2.50;;;;;;;;;;5084017;28;20184;-50
2021/04/05 07:22:15;;;;;;;4.20;2.22;;;;;;;;;;5084608;28;20197;-50
2021/04/05 07:24:48;;;;;;;3.97;2.50;;;;;;;;;;5085304;28;20184;-50
2021/04/05 07:27:21;;;;;;;5.95;2.38;;;;;;;;;;5085766;28;20653;-51
2021/04/05 07:30:05;;;;;;;3.20;2.20;;;;;;;;;;5084841;28;20286;-51
2021/04/05 07:32:51;;;;;;;3.95;2.30;;;;;;;;;;5084299;28;20684;-50
2021/04/05 07:35:28;;;;;;;4.22;2.13;;;;;;;;;;5085155;28;20242;-52
2021/04/05 07:38:05;;;;;;;4.90;2.30;;;;;;;;;;5083318;28;20231;-50
2021/04/05 07:40:48;;;;;;;7.43;3.40;;;;;;;;;;5083607;28;20185;-52
2021/04/05 07:43:20;;;;;;;6.65;2.80;;;;;;;;;;5085557;28;20546;-50
2021/04/05 07:45:55;;;;;;;4.90;2.88;;;;;;;;;;5085495;28;20242;-51
2021/04/05 07:48:37;;;;;;;4.22;2.88;;;;;;;;;;5084646;28;20194;-52
2021/04/05 07:51:12;;;;;;;8.50;3.03;;;;;;;;;;5084482;28;20205;-51
2021/04/05 07:53:42;;;;;;;6.63;2.70;;;;;;;;;;5084335;28;20205;-51
2021/04/05 07:56:14;;;;;;;17.33;10.85;;;;;;;;;;5084007;28;20272;-52
2021/04/05 07:58:52;;;;;;;34.22;20.63;;;;;;;;;;5085084;28;20182;-52
2021/04/05 08:01:39;;;;;;;40.17;28.33;;;;;;;;;;5073782;28;20201;-51
2021/04/05 08:04:09;;;;;;;51.53;34.47;;;;;;;;;;5084132;28;20190;-51
2021/04/05 08:06:36;;;;;;;48.15;31.27;;;;;;;;;;5081058;28;20178;-50
2021/04/05 08:09:05;;;;;;;40.50;26.85;;;;;;;;;;5082487;28;20214;-50
2021/04/05 08:11:41;;;;;;;39.13;26.90;;;;;;;;;;5081881;28;20574;-51
2021/04/05 08:14:22;;;;;;;43.10;26.65;;;;;;;;;;5080509;28;20603;-51
2021/04/05 08:17:00;;;;;;;42.15;24.73;;;;;;;;;;5078927;28;20191;-49
2021/04/05 08:19:46;;;;;;;44.95;24.42;;;;;;;;;;5081646;28;20241;-48
2021/04/05 08:22:22;;;;;;;39.80;22.92;;;;;;;;;;5083938;28;20288;-49
2021/04/05 08:25:09;;;;;;;59.45;26.38;;;;;;;;;;5070609;28;20179;-45
2021/04/05 08:27:41;;;;;;;43.58;23.85;;;;;;;;;;5058343;28;20596;-47
2021/04/05 08:30:21;;;;;;;43.38;19.15;;;;;;;;;;5067591;28;20190;-48
2021/04/05 08:33:05;;;;;;;37.42;17.95;;;;;;;;;;5061439;28;20732;-47
2021/04/05 08:35:31;;;;;;;32.75;14.85;;;;;;;;;;5056300;28;20183;-48
2021/04/05 08:38:04;;;;;;;31.33;14.13;;;;;;;;;;5085288;28;20169;-48
2021/04/05 08:40:45;;;;;;;29.83;13.55;;;;;;;;;;5055552;28;20337;-48
2021/04/05 08:43:23;;;;;;;25.92;12.23;;;;;;;;;;5055618;28;20191;-49
2021/04/05 08:45:54;;;;;;;24.60;11.10;;;;;;;;;;5058669;28;20236;-49
2021/04/05 08:48:21;;;;;;;23.80;9.75;;;;;;;;;;5070433;28;20202;-48
2021/04/05 08:50:52;;;;;;;21.77;10.07;;;;;;;;;;5059388;28;20217;-48
2021/04/05 08:53:20;;;;;;;23.98;9.88;;;;;;;;;;5069860;28;20206;-48
2021/04/05 08:55:47;;;;;;;45.08;13.55;;;;;;;;;;5067549;28;20178;-47
2021/04/05 08:58:33;;;;;;;28.13;10.13;;;;;;;;;;5058746;28;20258;-48
2021/04/05 09:01:01;;;;;;;28.65;8.80;;;;;;;;;;5043923;28;20302;-47
2021/04/05 09:03:32;;;;;;;31.40;9.07;;;;;;;;;;5050906;28;20198;-48
2021/04/05 09:05:58;;;;;;;29.13;8.68;;;;;;;;;;5049654;28;20186;-47
2021/04/05 09:08:25;;;;;;;29.00;8.57;;;;;;;;;;5057190;28;20265;-50
2021/04/05 09:11:04;;;;;;;26.75;8.52;;;;;;;;;;5070075;28;20661;-48
2021/04/05 09:13:42;;;;;;;23.27;8.18;;;;;;;;;;5070787;28;20267;-48
2021/04/05 09:16:27;;;;;;;24.48;7.88;;;;;;;;;;5069992;28;20546;-48
2021/04/05 09:19:12;;;;;;;19.52;7.13;;;;;;;;;;5069979;28;20178;-48
2021/04/05 09:21:57;;;;;;;22.02;7.45;;;;;;;;;;5049987;28;20201;-49
2021/04/05 09:24:32;;;;;;;18.00;7.90;;;;;;;;;;5050394;28;20566;-51
2021/04/05 09:27:25;;;;;;;16.50;6.60;;;;;;;;;;5050313;28;20186;-49
2021/04/05 09:30:00;;;;;;;18.80;6.78;;;;;;;;;;5050532;28;20674;-50
2021/04/05 09:32:26;;;;;;;16.80;6.40;;;;;;;;;;5059608;28;20829;-49
2021/04/05 09:35:08;;;;;;;15.65;6.57;;;;;;;;;;5068590;28;20182;-49
2021/04/05 09:37:46;;;;;;;17.30;6.55;;;;;;;;;;5067753;28;20189;-49
2021/04/05 09:40:15;;;;;;;22.20;7.28;;;;;;;;;;5070047;28;20178;-49
2021/04/05 09:42:41;;;;;;;14.85;6.10;;;;;;;;;;5070024;28;20230;-47
2021/04/05 09:45:19;;;;;;;16.65;6.60;;;;;;;;;;5067077;28;20215;-48
2021/04/05 09:47:58;;;;;;;13.70;5.68;;;;;;;;;;5060482;28;20183;-49
2021/04/05 09:50:30;;;;;;;12.30;6.13;;;;;;;;;;5052466;28;20578;-48
2021/04/05 09:52:56;;;;;;;17.75;5.95;;;;;;;;;;5059999;28;20203;-48
2021/04/05 09:55:32;;;;;;;13.65;5.88;;;;;;;;;;5066638;28;20183;-50
2021/04/05 09:58:01;;;;;;;15.88;6.43;;;;;;;;;;5054557;28;20604;-49
2021/04/05 10:00:28;;;;;;;13.68;6.00;;;;;;;;;;5049822;28;20225;-50
2021/04/05 10:03:04;;;;;;;20.02;6.80;;;;;;;;;;5049968;28;20191;-50
2021/04/05 10:05:34;;;;;;;16.48;7.00;;;;;;;;;;5060702;28;20177;-48
2021/04/05 10:08:01;;;;;;;15.98;7.75;;;;;;;;;;5062895;28;20179;-48
2021/04/05 10:10:28;;;;;;;18.50;7.80;;;;;;;;;;5068396;28;20178;-49
2021/04/05 10:12:56;;;;;;;19.27;8.10;;;;;;;;;;5066354;28;20202;-48
2021/04/05 10:15:23;;;;;;;18.67;8.27;;;;;;;;;;5069320;28;20170;-48
2021/04/05 10:17:52;;;;;;;17.92;7.60;;;;;;;;;;5055435;28;20179;-48
2021/04/05 10:20:18;;;;;;;17.02;7.68;;;;;;;;;;5069371;28;20217;-50
2021/04/05 10:22:46;;;;;;;63.60;19.90;;;;;;;;;;5069721;28;20222;-48
2021/04/05 10:25:15;;;;;;;290.75;89.18;;;;;;;;;;5068746;28;20182;-50
2021/04/05 10:27:43;;;;;;;251.13;74.90;;;;;;;;;;5069822;28;20235;-48
2021/04/05 10:30:15;;;;;;;455.95;146.77;;;;;;;;;;5069326;28;20200;-48
2021/04/05 10:32:42;;;;;;;331.40;114.05;;;;;;;;;;5053382;28;20230;-48
2021/04/05 10:35:09;;;;;;;358.67;108.00;;;;;;;;;;5055105;28;20261;-50
2021/04/05 10:37:39;;;;;;;296.10;92.28;;;;;;;;;;5064437;28;20293;-48
2021/04/05 10:40:15;;;;;;;246.93;69.40;;;;;;;;;;5065416;28;20546;-48
2021/04/05 10:42:49;;;;;;;208.35;64.40;;;;;;;;;;5064476;28;20713;-48
2021/04/05 10:45:23;;;;;;;188.43;57.85;;;;;;;;;;5067196;28;20182;-48
2021/04/05 10:47:49;;;;;;;150.68;50.72;;;;;;;;;;5067687;28;20311;-48
2021/04/05 10:50:16;;;;;;;159.27;49.60;;;;;;;;;;5060881;28;20269;-48
2021/04/05 10:52:43;;;;;;;125.82;46.35;;;;;;;;;;5048946;28;20210;-48
2021/04/05 10:55:15;;;;;;;114.78;42.13;;;;;;;;;;5059326;28;20260;-48
2021/04/05 10:57:44;;;;;;;118.70;42.22;;;;;;;;;;5065836;28;20186;-48
2021/04/05 11:00:22;;;;;;;108.80;39.45;;;;;;;;;;5388462;23;20187;-49
2021/04/05 11:02:51;;;;;;;98.60;37.85;;;;;;;;;;5050128;28;20195;-57
2021/04/05 11:05:18;;;;;;;89.15;35.17;;;;;;;;;;5053473;28;20183;-55
2021/04/05 11:07:46;;;;;;;88.68;34.38;;;;;;;;;;5053951;28;20328;-51
2021/04/05 11:10:18;;;;;;;90.35;36.35;;;;;;;;;;5053069;28;20183;-63
2021/04/05 11:12:45;;;;;;;86.65;32.33;;;;;;;;;;5052900;28;20276;-50
2021/04/05 11:15:13;;;;;;;93.28;35.80;;;;;;;;;;5052472;28;20193;-59
2021/04/05 11:49:00;;;;;;;60.97;26.42;;;;;;;;;;5071214;28;20515;-48
2021/04/05 11:51:27;;;;;;;57.45;25.15;;;;;;;;;;5071540;28;20472;-49
2021/04/05 11:53:59;;;;;;;53.80;23.67;;;;;;;;;;5070551;28;20170;-48
2021/04/05 11:56:27;;;;;;;49.95;21.20;;;;;;;;;;5070486;28;20213;-45
2021/04/05 11:59:09;;;;;;;135.55;27.33;;;;;;;;;;5071548;28;20170;-45
2021/04/05 12:01:58;;;;;;;73.78;23.33;;;;;;;;;;5071093;28;20228;-45
2021/04/05 12:04:46;;;;;;;58.60;20.77;;;;;;;;;;5067854;28;20194;-46
2021/04/05 12:07:14;;;;;;;53.25;19.73;;;;;;;;;;5071130;28;20198;-45
2021/04/05 12:09:40;;;;;;;56.15;20.77;;;;;;;;;;5070807;28;20167;-47
2021/04/05 12:12:08;;;;;;;50.85;20.92;;;;;;;;;;5071123;28;20173;-46
2021/04/05 12:14:34;;;;;;;58.08;20.80;;;;;;;;;;5606928;23;20238;-50
2021/04/05 12:17:01;;;;;;;53.45;18.85;;;;;;;;;;4997943;28;20188;-44
2021/04/05 12:19:35;;;;;;;46.33;19.17;;;;;;;;;;5002210;28;20197;-44
2021/04/05 12:22:03;;;;;;;48.35;20.20;;;;;;;;;;4994806;28;20201;-45
2021/04/05 12:24:36;;;;;;;43.13;18.90;;;;;;;;;;4999414;28;20181;-45
2021/04/05 12:27:07;;;;;;;41.15;19.05;;;;;;;;;;5002754;28;20212;-44
2021/04/05 12:29:34;;;;;;;38.30;17.23;;;;;;;;;;4997199;28;20239;-48
2021/04/05 12:32:02;;;;;;;34.08;16.80;;;;;;;;;;4998389;28;20185;-47
2021/04/05 12:34:31;;;;;;;36.13;16.85;;;;;;;;;;4999804;28;20587;-49
2021/04/05 12:36:58;;;;;;;30.45;15.07;;;;;;;;;;4999521;28;20215;-50
2021/04/05 12:39:34;;;;;;;35.15;15.68;;;;;;;;;;4999457;28;20189;-51
2021/04/05 12:42:06;;;;;;;34.67;15.52;;;;;;;;;;4999003;28;20242;-53
2021/04/05 12:44:33;;;;;;;37.15;15.60;;;;;;;;;;4999198;28;20186;-48
2021/04/05 12:47:00;;;;;;;30.17;14.82;;;;;;;;;;5001215;28;20246;-48
2021/04/05 12:49:30;;;;;;;31.73;15.10;;;;;;;;;;5001031;28;20229;-48
2021/04/05 12:51:58;;;;;;;30.63;14.10;;;;;;;;;;4998269;28;20829;-43
2021/04/05 12:54:26;;;;;;;29.27;13.88;;;;;;;;;;4999678;28;20180;-50
2021/04/05 12:56:54;;;;;;;33.50;14.00;;;;;;;;;;5000080;28;20216;-46
2021/04/05 12:59:28;;;;;;;28.10;13.07;;;;;;;;;;4990960;28;20182;-54
2021/04/05 13:01:57;;;;;;;25.42;11.48;;;;;;;;;;4987169;28;20247;-54
2021/04/05 13:04:24;;;;;;;25.45;11.65;;;;;;;;;;4986308;28;20194;-49
2021/04/05 13:06:59;;;;;;;27.60;11.38;;;;;;;;;;4987090;28;20247;-51
2021/04/05 13:09:35;;;;;;;25.50;11.00;;;;;;;;;;4987162;28;20209;-50
2021/04/05 13:12:22;;;;;;;23.17;10.85;;;;;;;;;;4986076;28;20188;-51
2021/04/05 13:14:50;;;;;;;22.67;10.27;;;;;;;;;;4989251;28;20240;-57
2021/04/05 13:17:27;;;;;;;22.50;11.23;;;;;;;;;;4986478;28;20264;-49
2021/04/05 13:20:13;;;;;;;18.33;9.88;;;;;;;;;;4986000;28;20192;-48
2021/04/05 13:22:40;;;;;;;27.02;13.10;;;;;;;;;;4984533;28;20205;-48
2021/04/05 13:25:07;;;;;;;20.73;9.75;;;;;;;;;;4985082;28;20197;-48
2021/04/05 13:27:34;;;;;;;22.95;12.20;;;;;;;;;;4984700;28;20220;-48
2021/04/05 13:30:01;;;;;;;21.30;10.00;;;;;;;;;;4984816;28;20193;-49
2021/04/05 13:32:29;;;;;;;15.85;8.80;;;;;;;;;;4986299;28;20487;-48
2021/04/05 13:35:02;;;;;;;20.10;9.13;;;;;;;;;;4984794;28;20205;-49
2021/04/05 13:37:28;;;;;;;18.30;9.10;;;;;;;;;;4984374;28;20467;-48
2021/04/05 13:39:55;;;;;;;17.25;8.60;;;;;;;;;;4985672;28;20189;-49
2021/04/05 13:42:23;;;;;;;16.33;8.18;;;;;;;;;;4985883;28;20225;-49
2021/04/05 13:44:50;;;;;;;21.35;8.13;;;;;;;;;;4986088;28;20576;-49
2021/04/05 13:47:17;;;;;;;14.07;7.45;;;;;;;;;;4984643;28;20216;-49
2021/04/05 13:49:44;;;;;;;18.25;7.65;;;;;;;;;;4984343;28;20456;-51
2021/04/05 13:52:12;;;;;;;15.93;6.97;;;;;;;;;;4985307;28;20178;-54
2021/04/05 13:54:39;;;;;;;14.45;7.07;;;;;;;;;;4984333;28;20197;-57
2021/04/05 13:57:07;;;;;;;14.18;6.55;;;;;;;;;;4986121;28;20715;-53
2021/04/05 13:59:34;;;;;;;15.13;6.78;;;;;;;;;;4985984;28;20181;-49
2021/04/05 14:02:01;;;;;;;13.90;6.57;;;;;;;;;;4985203;28;20224;-47
2021/04/05 14:04:38;;;;;;;12.93;6.30;;;;;;;;;;4983549;28;20220;-47
2021/04/05 14:07:04;;;;;;;13.88;6.43;;;;;;;;;;4985872;28;20502;-47
2021/04/05 14:09:32;;;;;;;11.63;5.35;;;;;;;;;;4985181;28;20190;-46
2021/04/05 14:11:59;;;;;;;13.43;5.88;;;;;;;;;;4983422;28;20196;-50
2021/04/05 14:14:26;;;;;;;14.45;5.20;;;;;;;;;;4985118;28;20589;-51
2021/04/05 14:16:56;;;;;;;13.52;5.57;;;;;;;;;;4986022;28;20336;-49
2021/04/05 14:19:29;;;;;;;10.30;5.90;;;;;;;;;;4985180;28;20474;-46
2021/04/05 14:22:06;;;;;;;12.85;4.93;;;;;;;;;;4983978;28;20265;-50
2021/04/05 14:24:35;;;;;;;8.13;4.75;;;;;;;;;;4985451;28;20479;-54
2021/04/05 14:27:03;;;;;;;8.88;5.05;;;;;;;;;;4985154;28;20646;-48
2021/04/05 14:29:35;;;;;;;8.18;4.63;;;;;;;;;;4982286;28;20196;-47
2021/04/05 14:32:04;;;;;;;9.30;4.90;;;;;;;;;;4984667;28;20208;-51
2021/04/05 14:34:34;;;;;;;7.78;4.40;;;;;;;;;;4983841;28;20186;-50
2021/04/05 14:37:03;;;;;;;7.82;4.00;;;;;;;;;;4984701;28;20193;-47
2021/04/05 14:39:43;;;;;;;7.60;3.83;;;;;;;;;;4986527;28;20185;-49
2021/04/05 14:42:15;;;;;;;7.90;4.20;;;;;;;;;;4985536;28;20555;-48
2021/04/05 14:44:50;;;;;;;6.97;4.13;;;;;;;;;;4984004;28;20257;-48
2021/04/05 14:47:17;;;;;;;7.90;4.72;;;;;;;;;;4984647;28;20212;-48
2021/04/05 14:49:47;;;;;;;6.50;3.60;;;;;;;;;;4985236;28;20190;-50
2021/04/05 14:52:14;;;;;;;9.93;4.00;;;;;;;;;;4984685;28;20192;-49
2021/04/05 14:54:42;;;;;;;5.43;3.35;;;;;;;;;;4984243;28;20198;-51
2021/04/05 14:57:10;;;;;;;8.60;3.55;;;;;;;;;;4982571;28;20659;-47
2021/04/05 14:59:37;;;;;;;40.85;13.82;;;;;;;;;;4983841;28;20197;-50
2021/04/05 15:02:05;;;;;;;32.65;12.40;;;;;;;;;;4983226;28;20198;-48
2021/04/05 15:04:33;;;;;;;24.40;8.85;;;;;;;;;;4982140;28;20277;-49
2021/04/05 15:07:00;;;;;;;19.85;7.15;;;;;;;;;;4983272;28;20226;-47
2021/04/05 15:09:39;;;;;;;16.48;6.07;;;;;;;;;;4983204;28;20182;-47
2021/04/05 15:12:07;;;;;;;13.52;5.15;;;;;;;;;;4984551;28;20192;-47
2021/04/05 15:14:35;;;;;;;14.20;5.47;;;;;;;;;;4983263;28;20290;-47
2021/04/05 15:17:08;;;;;;;9.52;4.65;;;;;;;;;;4984272;28;20295;-48
2021/04/05 15:19:35;;;;;;;8.85;4.30;;;;;;;;;;4983927;28;20196;-49
2021/04/05 15:22:03;;;;;;;12.55;4.90;;;;;;;;;;4983949;28;20208;-46
2021/04/05 15:24:31;;;;;;;7.57;3.95;;;;;;;;;;4983319;28;20208;-48
2021/04/05 15:27:01;;;;;;;7.57;4.20;;;;;;;;;;4984150;28;20206;-46
2021/04/05 15:29:27;;;;;;;12.45;4.30;;;;;;;;;;4984141;28;20193;-48
2021/04/05 15:31:54;;;;;;;10.90;3.83;;;;;;;;;;4984220;28;20295;-47
2021/04/05 15:34:23;;;;;;;8.23;3.33;;;;;;;;;;4981896;28;20200;-46
2021/04/05 15:36:49;;;;;;;9.98;3.13;;;;;;;;;;4983547;28;20197;-47
2021/04/05 15:39:17;;;;;;;6.07;2.95;;;;;;;;;;4983996;28;20687;-48
2021/04/05 15:41:44;;;;;;;2.60;2.00;;;;;;;;;;4984347;28;20479;-48
2021/04/05 15:44:14;;;;;;;5.72;2.63;;;;;;;;;;4980175;28;20193;-49
2021/04/05 15:46:48;;;;;;;5.88;2.90;;;;;;;;;;4983478;28;20264;-49
2021/04/05 15:49:15;;;;;;;4.47;2.90;;;;;;;;;;4984390;28;20444;-49
2021/04/05 15:51:47;;;;;;;6.25;2.90;;;;;;;;;;4983151;28;20492;-46
2021/04/05 15:54:17;;;;;;;5.25;2.80;;;;;;;;;;4983402;28;20388;-48
2021/04/05 15:56:47;;;;;;;6.05;2.70;;;;;;;;;;4983300;28;20216;-46
2021/04/05 15:59:17;;;;;;;3.90;2.65;;;;;;;;;;4983763;28;20320;-49
2021/04/05 16:01:48;;;;;;;7.05;2.97;;;;;;;;;;4983911;28;20590;-48
2021/04/05 16:04:24;;;;;;;5.00;2.65;;;;;;;;;;4983621;28;20188;-48
2021/04/05 16:06:58;;;;;;;7.05;2.80;;;;;;;;;;4983296;28;20259;-47
2021/04/05 16:09:27;;;;;;;6.22;2.55;;;;;;;;;;4983947;28;20551;-48
2021/04/05 16:11:56;;;;;;;4.13;2.15;;;;;;;;;;4983018;28;20204;-45
2021/04/05 16:14:27;;;;;;;3.03;2.05;;;;;;;;;;4982358;28;20229;-50
2021/04/05 16:16:55;;;;;;;4.07;2.35;;;;;;;;;;4983084;28;20191;-49
2021/04/05 16:19:26;;;;;;;5.13;2.60;;;;;;;;;;4983542;28;20197;-50
2021/04/05 16:21:55;;;;;;;4.00;2.20;;;;;;;;;;4983667;28;20552;-49
2021/04/05 16:24:30;;;;;;;4.47;2.30;;;;;;;;;;4983040;28;20185;-49
2021/04/05 16:26:59;;;;;;;4.88;2.42;;;;;;;;;;4983819;28;20212;-50
2021/04/05 16:29:28;;;;;;;3.47;2.35;;;;;;;;;;4982892;28;20442;-47
2021/04/05 16:31:59;;;;;;;6.97;2.53;;;;;;;;;;4983191;28;20446;-49
2021/04/05 16:34:30;;;;;;;5.00;2.70;;;;;;;;;;4984085;28;20449;-50
2021/04/05 16:37:04;;;;;;;5.15;3.40;;;;;;;;;;4987048;28;20485;-50
2021/04/05 16:39:32;;;;;;;6.10;3.50;;;;;;;;;;4987682;28;20268;-51
2021/04/05 16:42:00;;;;;;;7.03;3.45;;;;;;;;;;4987745;28;20197;-50
2021/04/05 16:46:26;;;;;;;6.50;2.90;;;;;;;;;;5111502;27;20537;-54
2021/04/05 16:49:04;;;;;;;6.07;3.28;;;;;;;;;;5110808;28;20184;-60
2021/04/05 16:51:38;;;;;;;6.38;3.22;;;;;;;;;;5110508;28;20195;-49
2021/04/05 16:54:05;;;;;;;7.32;2.72;;;;;;;;;;5109378;28;20592;-50
2021/04/05 16:56:33;;;;;;;4.25;2.70;;;;;;;;;;5110453;28;20220;-49
2021/04/05 16:59:05;;;;;;;6.05;3.17;;;;;;;;;;5110682;28;20234;-54
2021/04/05 17:01:33;;;;;;;6.88;3.55;;;;;;;;;;5110897;28;20211;-49
